Oakville, Texas
Current Conditions -  °F | °C
As of 11:35 PM on Monday 26 Jan 2015 (Local Time) from KBEA Reporting Station
Clear Clear  
Wind Chill: 57°   Ceiling: Unl
Heat Index: 57°   Visibility: 10mi
Dew Point: 42°   Wind: 3mph
Humidity: 59%   Direction: 250°WSW
Pressure: 30.21"   Gusts: NA
Location:  28.45°N, 98.1°W
Report Text: KBEA 270535Z AUTO 25003KT 10SM CLR 14/06 A3021 RMK AO2 T01380058
Loading
Personal Weather Stations






























Interactive Weather Map New forecast layout! Learn more

10-Day Weather Forecast

Advertisements
Track Severe Weather on mobile